Terminal Aerodrome Forecast
Issued by NWS

Home | Current Version | Previous Version | Text Only | Print | Product List | Glossary Off
Versions: 1 2 3 4 5 6 7 8 9 10 11 12 13 14 15 16

189
FTUS43 KMPX 232320
TAFRWF
TAF
KRWF 232320Z 2400/2424 36008KT P6SM VCSH SCT020 BKN040 OVC080
     FM240200 01006KT P6SM BKN080
     FM241000 36005KT P6SM SCT015 BKN025
     FM241700 04007KT P6SM SCT025 BKN050=

USA.gov is the U.S. government's official web portal to all federal, state and local government web resources and services.